createdAt,value
2022-07-29T00:01:22.634Z,97322.28
2022-07-29T00:03:51.119Z,97460.59
2022-07-29T00:06:19.458Z,97397.69
2022-07-29T00:08:47.678Z,97460.81
2022-07-29T00:11:16.268Z,97323.91
2022-07-29T00:13:50.769Z,97457.16
2022-07-29T00:16:19.459Z,97466.28
2022-07-29T00:18:47.969Z,97437.88
2022-07-29T00:21:16.299Z,97469.22
2022-07-29T00:23:44.594Z,97331.78
2022-07-29T00:26:12.945Z,97460.69
2022-07-29T00:28:41.121Z,97442.78
2022-07-29T00:31:10.797Z,97305.38
2022-07-29T00:33:39.048Z,97399.53
2022-07-29T00:36:06.661Z,97459.22
2022-07-29T00:38:34.983Z,97450.13
2022-07-29T00:41:03.515Z,97461.31
2022-07-29T00:43:31.815Z,97457.81
2022-07-29T00:45:59.990Z,97452.34
2022-07-29T00:48:29.943Z,97453.84
2022-07-29T00:50:59.674Z,97452.75
2022-07-29T00:53:29.700Z,97456.44
2022-07-29T00:55:58.920Z,97449.63
2022-07-29T00:58:28.802Z,97298.25
2022-07-29T01:00:57.215Z,97448.06
2022-07-29T01:03:26.135Z,97452.75
2022-07-29T01:05:56.627Z,97440.41
2022-07-29T01:08:25.649Z,97447.56
2022-07-29T01:10:55.329Z,97441.88
2022-07-29T01:13:24.906Z,97340.69
2022-07-29T01:15:59.151Z,97448.72
2022-07-29T01:18:34.230Z,97442.31
2022-07-29T01:21:49.344Z,97456.19
2022-07-29T01:24:36.236Z,97454.91
2022-07-29T01:27:24.664Z,97446.81
2022-07-29T01:29:59.014Z,97443.69
2022-07-29T01:32:31.380Z,97322.50
2022-07-29T01:35:05.875Z,97444.53
2022-07-29T01:37:40.856Z,97444.28
2022-07-29T01:40:16.603Z,97446.44
2022-07-29T01:42:46.829Z,97409.81
2022-07-29T01:45:19.371Z,97440.31
2022-07-29T01:47:55.650Z,97437.72
2022-07-29T01:50:29.188Z,97390.59
2022-07-29T01:53:00.749Z,97441.47
2022-07-29T01:55:33.414Z,97409.38
2022-07-29T01:58:03.906Z,97437.97
2022-07-29T02:00:35.535Z,97433.69
2022-07-29T02:03:08.059Z,97439.03
2022-07-29T02:05:39.594Z,97280.88
2022-07-29T02:08:08.929Z,97424.94
2022-07-29T02:10:40.683Z,97314.41
2022-07-29T02:13:11.614Z,97389.22
2022-07-29T02:15:44.813Z,97423.69
2022-07-29T02:18:17.985Z,97424.06
2022-07-29T02:20:49.503Z,97393.97
2022-07-29T02:23:22.052Z,97418.69
2022-07-29T02:25:53.571Z,97415.47
2022-07-29T02:28:24.428Z,97410.34
2022-07-29T02:30:58.024Z,97417.00
2022-07-29T02:33:27.721Z,97376.34
2022-07-29T02:35:57.881Z,97407.53
2022-07-29T02:38:46.153Z,97308.94
2022-07-29T02:41:17.774Z,97382.25
2022-07-29T02:43:49.214Z,97421.75
2022-07-29T02:46:29.394Z,97412.00
2022-07-29T02:49:01.621Z,97357.16
2022-07-29T02:51:43.573Z,97312.72
2022-07-29T02:54:21.926Z,97406.94
2022-07-29T02:56:53.799Z,97357.78
2022-07-29T02:59:25.698Z,97410.34
2022-07-29T03:01:57.861Z,97410.00
2022-07-29T03:04:29.739Z,97322.47
2022-07-29T03:07:01.610Z,97411.06
2022-07-29T03:09:30.880Z,97409.81
2022-07-29T03:11:59.750Z,97385.31
2022-07-29T03:14:28.778Z,97259.25
2022-07-29T03:16:58.876Z,97406.47
2022-07-29T03:19:28.379Z,97410.81
2022-07-29T03:21:58.785Z,97402.59
2022-07-29T03:24:32.786Z,97407.63
2022-07-29T03:27:01.478Z,97355.19
2022-07-29T03:29:33.792Z,97414.94
2022-07-29T03:32:08.454Z,97420.41
2022-07-29T03:34:38.641Z,97412.09
2022-07-29T03:37:08.159Z,97413.19
2022-07-29T03:39:41.829Z,97315.84
2022-07-29T03:42:12.677Z,97418.41
2022-07-29T03:44:43.450Z,97416.47
2022-07-29T03:47:16.304Z,97425.63
2022-07-29T03:49:46.795Z,97416.34
2022-07-29T03:52:15.642Z,97353.91
2022-07-29T03:54:43.976Z,97401.38
2022-07-29T03:57:13.862Z,97427.66
2022-07-29T03:59:42.848Z,97325.91
2022-07-29T04:02:14.906Z,97422.03
2022-07-29T04:04:46.245Z,97321.44
2022-07-29T04:07:15.485Z,97392.13
2022-07-29T04:09:44.255Z,97411.38
2022-07-29T04:12:12.977Z,97432.44
2022-07-29T04:14:41.279Z,97440.31
2022-07-29T04:17:09.969Z,97297.44
2022-07-29T04:19:39.616Z,97380.31
2022-07-29T04:22:07.913Z,97432.41
2022-07-29T04:24:37.096Z,97426.56
2022-07-29T04:27:05.442Z,97397.22
2022-07-29T04:29:33.786Z,97434.19
2022-07-29T04:32:02.423Z,97436.69
2022-07-29T04:34:30.700Z,97440.69
2022-07-29T04:37:00.373Z,97439.28
2022-07-29T04:39:30.414Z,97391.03
2022-07-29T04:41:59.145Z,97362.28
2022-07-29T04:44:28.550Z,97381.41
2022-07-29T04:46:58.943Z,97452.88
2022-07-29T04:49:27.603Z,97438.34
2022-07-29T04:51:56.590Z,97467.16
2022-07-29T04:54:26.473Z,97423.19
2022-07-29T04:56:54.736Z,97333.63
2022-07-29T04:59:23.796Z,97440.78
2022-07-29T05:01:52.140Z,97435.22
2022-07-29T05:04:20.888Z,97440.72
2022-07-29T05:06:49.559Z,97428.44
2022-07-29T05:09:18.126Z,97435.22
2022-07-29T05:11:47.732Z,97358.94
2022-07-29T05:14:16.408Z,97435.09
2022-07-29T05:16:44.983Z,97434.09
2022-07-29T05:19:14.556Z,97450.97
2022-07-29T05:21:43.924Z,97345.75
2022-07-29T05:24:12.871Z,97425.03
2022-07-29T05:26:41.951Z,97439.31
2022-07-29T05:29:44.664Z,97413.13
2022-07-29T05:32:00.637Z,97413.50
2022-07-29T05:34:29.054Z,97446.50
2022-07-29T05:36:57.665Z,97449.75
2022-07-29T05:39:47.198Z,97453.03
2022-07-29T05:42:14.374Z,97448.56
2022-07-29T05:44:44.175Z,97357.09
2022-07-29T05:47:13.540Z,97445.41
2022-07-29T05:49:41.789Z,97450.81
2022-07-29T05:52:11.203Z,97295.41
2022-07-29T05:54:39.570Z,97446.75
2022-07-29T05:57:08.703Z,97451.94
2022-07-29T05:59:38.231Z,97453.91
2022-07-29T06:02:07.956Z,97454.16
2022-07-29T06:04:36.796Z,97331.53
2022-07-29T06:07:05.310Z,97447.88
2022-07-29T06:09:36.141Z,97453.00
2022-07-29T06:12:05.361Z,97451.47
2022-07-29T06:14:33.867Z,97394.13
2022-07-29T06:17:02.107Z,97388.38
2022-07-29T06:19:31.871Z,97408.63
2022-07-29T06:22:00.198Z,97453.75
2022-07-29T06:24:28.466Z,97451.19
2022-07-29T06:26:57.116Z,97372.84
2022-07-29T06:29:25.563Z,97371.28
2022-07-29T06:31:53.963Z,97450.06
2022-07-29T06:34:22.538Z,97457.00
2022-07-29T06:36:54.215Z,97452.75
2022-07-29T06:39:23.165Z,97452.94
2022-07-29T06:41:52.558Z,97449.84
2022-07-29T06:44:21.099Z,97362.84
2022-07-29T06:46:51.022Z,97447.47
2022-07-29T06:49:19.440Z,97395.63
2022-07-29T06:51:48.211Z,97445.31
2022-07-29T06:54:18.338Z,97450.56
2022-07-29T06:56:47.075Z,97306.66
2022-07-29T06:59:15.585Z,97287.88
2022-07-29T07:01:45.474Z,97447.44
2022-07-29T07:04:14.786Z,97446.16
2022-07-29T07:06:43.510Z,97371.88
2022-07-29T07:09:11.815Z,97452.44
2022-07-29T07:11:41.835Z,97451.38
2022-07-29T07:14:10.060Z,97447.44
2022-07-29T07:16:38.399Z,97449.75
2022-07-29T07:19:06.833Z,97441.28
2022-07-29T07:21:36.065Z,97446.75
2022-07-29T07:24:08.440Z,97450.06
2022-07-29T07:26:36.964Z,97432.22
2022-07-29T07:29:06.628Z,97446.69
2022-07-29T07:31:35.014Z,97394.09
2022-07-29T07:34:03.303Z,97456.69
2022-07-29T07:36:31.988Z,97419.09
2022-07-29T07:39:00.232Z,97450.47
2022-07-29T07:41:32.479Z,97448.97
2022-07-29T07:44:01.310Z,97447.91
2022-07-29T07:46:31.430Z,97448.38
2022-07-29T07:48:59.701Z,97444.47
2022-07-29T07:51:28.150Z,97447.03
2022-07-29T07:53:56.390Z,97262.72
2022-07-29T07:56:25.941Z,97336.94
2022-07-29T07:58:54.152Z,97440.00
2022-07-29T08:01:24.186Z,97434.19
2022-07-29T08:03:53.923Z,97422.84
2022-07-29T08:06:22.485Z,97408.66
2022-07-29T08:08:51.987Z,97444.03
2022-07-29T08:11:20.329Z,97428.56
2022-07-29T08:13:48.746Z,97443.59
2022-07-29T08:16:17.316Z,97445.19
2022-07-29T08:18:47.154Z,97448.56
2022-07-29T08:21:17.516Z,97417.16
2022-07-29T08:23:57.991Z,97458.03
2022-07-29T08:26:27.314Z,97458.81
2022-07-29T08:28:55.728Z,97424.38
2022-07-29T08:31:24.178Z,97455.91
2022-07-29T08:33:52.592Z,97351.81
2022-07-29T08:36:23.476Z,97438.03
2022-07-29T08:38:52.188Z,97471.59
2022-07-29T08:41:21.231Z,97464.69
2022-07-29T08:43:49.768Z,97389.00
2022-07-29T08:46:18.747Z,97270.34
2022-07-29T08:48:47.316Z,97471.84
2022-07-29T08:51:17.960Z,97442.06
2022-07-29T08:53:50.018Z,97465.09
2022-07-29T08:56:19.990Z,97475.03
2022-07-29T08:58:51.867Z,97471.88
2022-07-29T09:01:36.482Z,97321.81
2022-07-29T09:04:14.176Z,97452.34
2022-07-29T09:06:47.312Z,97480.13
2022-07-29T09:09:17.942Z,97471.56
2022-07-29T09:11:46.610Z,97481.63
2022-07-29T09:14:15.774Z,97476.41
2022-07-29T09:16:53.435Z,97485.50
2022-07-29T09:19:27.723Z,97482.25
2022-07-29T09:22:03.613Z,97486.22
2022-07-29T09:24:45.441Z,97488.34
2022-07-29T09:27:23.393Z,97499.81
2022-07-29T09:30:02.578Z,97484.69
2022-07-29T09:32:32.362Z,97497.41
2022-07-29T09:35:22.421Z,97488.69
2022-07-29T09:37:51.555Z,97456.19
2022-07-29T09:40:23.370Z,97486.09
2022-07-29T09:42:52.261Z,97495.69
2022-07-29T09:45:31.972Z,97471.03
2022-07-29T09:48:04.298Z,97451.09
2022-07-29T09:50:40.454Z,97476.22
2022-07-29T09:53:10.761Z,97484.78
2022-07-29T09:55:51.858Z,97462.38
2022-07-29T09:58:20.888Z,97482.44
2022-07-29T10:00:51.173Z,97479.28
2022-07-29T10:03:19.904Z,97481.19
2022-07-29T10:05:48.701Z,97488.31
2022-07-29T10:08:27.820Z,97479.25
2022-07-29T10:11:12.255Z,97490.06
2022-07-29T10:13:41.651Z,97483.16
2022-07-29T10:16:11.020Z,97492.06
2022-07-29T10:18:41.895Z,97478.66
2022-07-29T10:21:11.251Z,97364.00
2022-07-29T10:23:52.404Z,97306.56
2022-07-29T10:26:22.853Z,97467.50
2022-07-29T10:28:51.361Z,97370.66
2022-07-29T10:31:30.355Z,97368.53
2022-07-29T10:34:09.817Z,97452.56
2022-07-29T10:36:51.380Z,97466.31
2022-07-29T10:42:33.592Z,97457.78
2022-07-29T10:45:04.358Z,97457.34
2022-07-29T10:47:35.067Z,97453.25
2022-07-29T10:50:05.986Z,97424.16
2022-07-29T10:52:55.533Z,97457.19
2022-07-29T10:55:47.795Z,97439.38
2022-07-29T10:58:19.585Z,97407.59
2022-07-29T11:00:49.511Z,97447.75
2022-07-29T11:03:49.274Z,97448.63
2022-07-29T11:06:26.999Z,97449.09
2022-07-29T11:09:20.105Z,97448.97
2022-07-29T11:11:51.595Z,97426.06
2022-07-29T11:15:02.820Z,97442.81
2022-07-29T11:17:47.120Z,97441.44
2022-07-29T11:20:37.934Z,97438.72
2022-07-29T11:23:24.669Z,97430.41
2022-07-29T11:26:18.891Z,97427.63
2022-07-29T11:28:56.061Z,97432.13
2022-07-29T11:31:37.914Z,97402.59
2022-07-29T11:34:27.988Z,97437.38
2022-07-29T11:37:31.097Z,97427.72
2022-07-29T11:40:21.391Z,97426.38
2022-07-29T11:42:52.396Z,97430.31
2022-07-29T11:48:28.820Z,97377.66
2022-07-29T11:51:02.978Z,97427.47
2022-07-29T11:53:32.783Z,97427.25
2022-07-29T11:56:03.445Z,97254.53
2022-07-29T11:58:32.726Z,97417.88
2022-07-29T12:01:04.923Z,97410.16
2022-07-29T12:03:36.820Z,97430.09
2022-07-29T12:06:13.845Z,97435.16
2022-07-29T12:08:45.134Z,97346.59
2022-07-29T12:11:22.606Z,97328.28
2022-07-29T12:13:52.288Z,97422.84
2022-07-29T12:16:27.935Z,97403.28
2022-07-29T12:19:04.245Z,97417.41
2022-07-29T12:21:56.187Z,97421.34
2022-07-29T12:24:26.574Z,97414.56
2022-07-29T12:26:57.220Z,97372.41
2022-07-29T12:29:35.584Z,97425.19
2022-07-29T12:32:14.721Z,97376.84
2022-07-29T12:34:49.636Z,97333.50
2022-07-29T12:37:18.099Z,97419.31
2022-07-29T12:39:46.578Z,97390.97
2022-07-29T12:42:18.392Z,97348.16
2022-07-29T12:44:51.499Z,97344.66
2022-07-29T12:47:20.758Z,97411.34
2022-07-29T12:49:51.925Z,97413.66
2022-07-29T12:52:27.672Z,97409.56
2022-07-29T12:54:56.261Z,97410.75
2022-07-29T12:57:25.103Z,97368.56
2022-07-29T13:00:08.940Z,97388.44
2022-07-29T13:02:37.526Z,97382.63
2022-07-29T13:05:09.446Z,97306.13
2022-07-29T13:07:54.608Z,97345.41
2022-07-29T13:10:26.193Z,97318.69
2022-07-29T13:13:05.581Z,97394.63
2022-07-29T13:15:34.279Z,97378.13
2022-07-29T13:18:02.759Z,97400.09
2022-07-29T13:20:33.187Z,97397.25
2022-07-29T13:23:02.798Z,97395.94
2022-07-29T13:25:33.131Z,97311.19
2022-07-29T13:28:01.891Z,97377.88
2022-07-29T13:30:30.459Z,97387.47
2022-07-29T13:32:58.804Z,97199.34
2022-07-29T13:35:27.008Z,97378.50
2022-07-29T13:37:56.614Z,97364.94
2022-07-29T13:40:24.829Z,97365.66
2022-07-29T13:42:53.155Z,97362.44
2022-07-29T13:45:21.450Z,97363.19
2022-07-29T13:47:49.644Z,97363.81
2022-07-29T13:50:17.814Z,97187.53
2022-07-29T13:52:46.027Z,97362.19
2022-07-29T13:55:15.718Z,97359.00
2022-07-29T13:57:44.050Z,97356.69
2022-07-29T14:00:13.979Z,97231.56
2022-07-29T14:02:42.169Z,97317.03
2022-07-29T14:05:11.893Z,97340.91
2022-07-29T14:07:41.023Z,97239.59
2022-07-29T14:10:10.225Z,97307.78
2022-07-29T14:12:40.502Z,97286.13
2022-07-29T14:15:09.895Z,97320.47
2022-07-29T14:17:38.135Z,97290.03
2022-07-29T14:20:07.634Z,97326.50
2022-07-29T14:22:38.980Z,97324.44
2022-07-29T14:25:14.683Z,97328.53
2022-07-29T14:27:45.383Z,97305.28
2022-07-29T14:30:14.538Z,97328.66
2022-07-29T14:32:43.129Z,97264.06
2022-07-29T14:35:11.741Z,97185.84
2022-07-29T14:37:41.263Z,97311.91
2022-07-29T14:40:11.482Z,97312.22
2022-07-29T14:42:40.636Z,97275.63
2022-07-29T14:45:11.734Z,97312.56
2022-07-29T14:47:40.737Z,97312.53
2022-07-29T14:50:10.086Z,97308.69
2022-07-29T14:52:38.405Z,97235.28
2022-07-29T14:55:16.421Z,97270.59
2022-07-29T14:57:47.970Z,97297.47
2022-07-29T15:00:18.711Z,97147.97
2022-07-29T15:03:01.452Z,97291.75
2022-07-29T15:05:30.966Z,97290.31
2022-07-29T15:07:59.927Z,97287.47
2022-07-29T15:10:28.431Z,97285.19
2022-07-29T15:12:58.568Z,97278.06
2022-07-29T15:15:28.452Z,97269.94
2022-07-29T15:17:56.714Z,97161.88
2022-07-29T15:20:28.249Z,97271.44
2022-07-29T15:22:57.204Z,97253.63
2022-07-29T15:25:25.462Z,97276.25
2022-07-29T15:28:00.990Z,97268.50
2022-07-29T15:30:34.270Z,97256.22
2022-07-29T15:33:04.201Z,97166.81
2022-07-29T15:35:32.612Z,97264.34
2022-07-29T15:38:01.223Z,97260.19
2022-07-29T15:40:29.879Z,97255.28
2022-07-29T15:43:01.842Z,97175.44
2022-07-29T15:45:32.463Z,97254.66
2022-07-29T15:48:00.899Z,97250.38
2022-07-29T15:50:29.584Z,97215.16
2022-07-29T15:52:57.821Z,97237.63
2022-07-29T15:55:26.427Z,97174.16
2022-07-29T15:58:00.009Z,97230.34
2022-07-29T16:00:29.067Z,97223.75
2022-07-29T16:02:58.963Z,97150.00
2022-07-29T16:05:29.938Z,97162.06
2022-07-29T16:08:00.992Z,97133.50
2022-07-29T16:10:29.613Z,97211.25
2022-07-29T16:12:58.220Z,97216.59
2022-07-29T16:15:26.677Z,97213.19
2022-07-29T16:17:54.907Z,97214.38
2022-07-29T16:20:24.555Z,97180.50
2022-07-29T16:22:53.813Z,97145.50
2022-07-29T16:25:38.406Z,97201.66
2022-07-29T16:28:11.470Z,97206.41
2022-07-29T16:30:39.741Z,97193.63
2022-07-29T16:33:08.570Z,97191.69
2022-07-29T16:35:40.510Z,97186.03
2022-07-29T16:38:09.347Z,97185.19
2022-07-29T16:40:37.698Z,97190.19
2022-07-29T16:43:06.504Z,97187.63
2022-07-29T16:45:43.933Z,97184.72
2022-07-29T16:50:45.046Z,97188.63
2022-07-29T16:53:13.408Z,97124.72
2022-07-29T16:55:42.430Z,97153.06
2022-07-29T16:58:11.184Z,97162.69
2022-07-29T17:00:39.752Z,97183.41
2022-07-29T17:03:08.007Z,97186.25
2022-07-29T17:05:50.527Z,97072.13
2022-07-29T17:08:23.903Z,97051.03
2022-07-29T17:10:52.203Z,97164.72
2022-07-29T17:13:20.995Z,97100.25
2022-07-29T17:15:49.242Z,97191.03
2022-07-29T17:18:17.702Z,97189.06
2022-07-29T17:20:45.955Z,97188.03
2022-07-29T17:23:14.150Z,97189.16
2022-07-29T17:25:43.809Z,97052.16
2022-07-29T17:28:12.130Z,97194.09
2022-07-29T17:30:40.414Z,97199.75
2022-07-29T17:33:08.678Z,97201.00
2022-07-29T17:35:54.644Z,97126.63
2022-07-29T17:38:22.959Z,97203.59
2022-07-29T17:40:58.454Z,97204.03
2022-07-29T17:43:27.989Z,97209.91
2022-07-29T17:45:59.421Z,97199.59
2022-07-29T17:48:28.403Z,97202.88
2022-07-29T17:50:58.206Z,97040.53
2022-07-29T17:53:26.472Z,97018.06
2022-07-29T17:55:58.289Z,97211.00
2022-07-29T17:58:26.856Z,97208.41
2022-07-29T18:00:55.124Z,97113.66
2022-07-29T18:03:24.004Z,97206.28
2022-07-29T18:05:52.455Z,97201.84
2022-07-29T18:08:20.997Z,97202.47
2022-07-29T18:10:49.427Z,97214.88
2022-07-29T18:13:20.361Z,97168.16
2022-07-29T18:15:48.680Z,97167.25
2022-07-29T18:18:18.511Z,97203.66
2022-07-29T18:20:47.103Z,97204.59
2022-07-29T18:23:15.742Z,97160.66
2022-07-29T18:25:44.199Z,97122.44
2022-07-29T18:28:12.502Z,97047.53
2022-07-29T18:30:42.219Z,97199.31
2022-07-29T18:33:22.342Z,97200.91
2022-07-29T18:35:52.550Z,97196.53
2022-07-29T18:38:41.317Z,97206.28
2022-07-29T18:41:09.648Z,97208.50
2022-07-29T18:43:37.876Z,97205.72
2022-07-29T18:46:07.683Z,97214.31
2022-07-29T18:48:36.417Z,97216.59
2022-07-29T18:51:09.278Z,97221.38
2022-07-29T18:53:37.992Z,97224.13
2022-07-29T18:56:06.458Z,97230.63
2022-07-29T18:58:34.663Z,97232.53
2022-07-29T19:01:03.103Z,97224.50
2022-07-29T19:03:32.753Z,97239.94
2022-07-29T19:06:01.270Z,97250.69
2022-07-29T19:08:29.553Z,97248.91
2022-07-29T19:10:57.803Z,97142.94
2022-07-29T19:13:26.352Z,97242.63
2022-07-29T19:15:54.662Z,97266.75
2022-07-29T19:18:22.864Z,97264.38
2022-07-29T19:20:52.640Z,97265.22
2022-07-29T19:23:20.906Z,97262.25
2022-07-29T19:25:53.380Z,97272.28
2022-07-29T19:28:22.424Z,97271.00
2022-07-29T19:30:50.939Z,97274.69
2022-07-29T19:33:19.375Z,97286.94
2022-07-29T19:35:50.370Z,97291.47
2022-07-29T19:38:22.845Z,97290.78
2022-07-29T19:40:51.041Z,97208.53
2022-07-29T19:43:50.632Z,97294.47
2022-07-29T19:46:07.770Z,97293.91
2022-07-29T19:48:36.035Z,97299.41
2022-07-29T19:51:04.355Z,97302.09
2022-07-29T19:53:34.077Z,97310.88
2022-07-29T19:56:02.281Z,97286.59
2022-07-29T19:58:32.964Z,97335.72
2022-07-29T20:01:01.164Z,97348.44
2022-07-29T20:03:29.480Z,97166.03
2022-07-29T20:05:57.719Z,97285.47
2022-07-29T20:08:25.938Z,97366.50
2022-07-29T20:10:56.176Z,97270.50
2022-07-29T20:13:24.696Z,97379.78
2022-07-29T20:15:52.982Z,97397.09
2022-07-29T20:18:21.201Z,97409.63
2022-07-29T20:20:49.920Z,97412.28
2022-07-29T20:23:19.585Z,97427.50
2022-07-29T20:25:47.828Z,97427.31
2022-07-29T20:28:17.557Z,97415.13
2022-07-29T20:30:47.623Z,97431.75
2022-07-29T20:33:16.383Z,97444.31
2022-07-29T20:35:44.810Z,97438.00
2022-07-29T20:38:17.794Z,97449.66
2022-07-29T20:40:46.701Z,97445.50
2022-07-29T20:43:14.922Z,97436.75
2022-07-29T20:45:44.616Z,97400.28
2022-07-29T20:48:14.035Z,97418.63
2022-07-29T20:50:42.931Z,97428.19
2022-07-29T20:53:11.325Z,97416.84
2022-07-29T20:55:39.770Z,97271.53
2022-07-29T20:58:09.243Z,97391.59
2022-07-29T21:00:37.756Z,97316.16
2022-07-29T21:03:07.675Z,97066.84
2022-07-29T21:05:38.045Z,97369.75
2022-07-29T21:08:07.004Z,97357.69
2022-07-29T21:10:35.410Z,97117.38
2022-07-29T21:13:03.887Z,97362.72
2022-07-29T21:15:32.809Z,97215.97
2022-07-29T21:18:03.194Z,97300.16
2022-07-29T21:20:34.063Z,97339.75
2022-07-29T21:23:02.811Z,97352.91
2022-07-29T21:25:31.035Z,97365.19
2022-07-29T21:28:16.668Z,97367.78
2022-07-29T21:30:44.969Z,97346.56
2022-07-29T21:33:13.386Z,97323.28
2022-07-29T21:36:06.311Z,97358.50
2022-07-29T21:38:31.363Z,97358.56
2022-07-29T21:40:59.610Z,97362.28
2022-07-29T21:43:29.035Z,97353.56
2022-07-29T21:45:57.717Z,97246.97
2022-07-29T21:48:27.859Z,97170.38
2022-07-29T21:50:58.146Z,97358.38
2022-07-29T21:53:28.736Z,97355.00
2022-07-29T21:55:59.073Z,97346.38
2022-07-29T21:58:27.713Z,97321.88
2022-07-29T22:00:56.047Z,97287.59
2022-07-29T22:03:24.422Z,97338.88
2022-07-29T22:05:53.164Z,97333.81
2022-07-29T22:08:22.922Z,97325.50
2022-07-29T22:10:51.236Z,97322.16
2022-07-29T22:13:19.513Z,97318.66
2022-07-29T22:15:48.268Z,97324.13
2022-07-29T22:18:20.669Z,97252.75
2022-07-29T22:20:50.134Z,97333.41
2022-07-29T22:23:18.478Z,97343.41
2022-07-29T22:25:48.223Z,97351.78
2022-07-29T22:28:16.699Z,97279.81
2022-07-29T22:30:45.017Z,97242.28
2022-07-29T22:33:17.835Z,97313.88
2022-07-29T22:35:48.715Z,97208.53
2022-07-29T22:38:17.462Z,97304.75
2022-07-29T22:40:45.673Z,97067.56
2022-07-29T22:43:16.822Z,97295.34
2022-07-29T22:45:45.400Z,97236.25
2022-07-29T22:48:13.864Z,97141.47
2022-07-29T22:50:42.445Z,97225.56
2022-07-29T22:53:11.151Z,97273.50
2022-07-29T22:55:39.433Z,97082.41
2022-07-29T22:58:07.719Z,97268.00
2022-07-29T23:00:37.822Z,97099.34
2022-07-29T23:03:06.047Z,97264.75
2022-07-29T23:05:34.554Z,97267.88
2022-07-29T23:08:02.792Z,97265.56
2022-07-29T23:10:31.041Z,97255.88
2022-07-29T23:12:59.197Z,97252.22
2022-07-29T23:15:27.443Z,97259.03
2022-07-29T23:17:57.100Z,97265.59
2022-07-29T23:20:25.413Z,97257.28
2022-07-29T23:22:53.843Z,97254.88
2022-07-29T23:25:22.539Z,97249.16
2022-07-29T23:27:50.918Z,97245.66
2022-07-29T23:30:19.670Z,97149.31
2022-07-29T23:32:47.993Z,97246.53
2022-07-29T23:35:17.542Z,97249.91
2022-07-29T23:37:45.906Z,97251.94
2022-07-29T23:40:15.115Z,97115.44
2022-07-29T23:42:43.839Z,97203.06
2022-07-29T23:45:13.511Z,97253.38
2022-07-29T23:47:42.220Z,97258.00
2022-07-29T23:50:13.331Z,97248.31
2022-07-29T23:52:43.332Z,97212.53
2022-07-29T23:55:37.032Z,97304.84
2022-07-29T23:58:01.327Z,97198.41
